This is the latest recevied weather packets stored in our database for station/object KI4HRG. If no packets are shown the sender has not sent any weather packets the latest 10 day(s).
| Time | Temp. | Humidity | Pressure | Rain* | Wind** | Luminosity | Snow |
|---|---|---|---|---|---|---|---|
| 1787586024 | 30.56° C | 61% | 1017.1 hPa | 0 mm | - | 723 W/m² | - |
| 1787585719 | 30.56° C | 63% | 1016.9 hPa | 0 mm | - | 663 W/m² | - |
| 1787585414 | 30.56° C | 62% | 1017.1 hPa | 0 mm | - | 230 W/m² | - |
| 1787585108 | 30° C | 63% | 1016.7 hPa | 0 mm | - | 678 W/m² | - |
| 1787584804 | 28.89° C | 65% | 1016.9 hPa | 0 mm | - | 221 W/m² | - |
| 1787584502 | 28.89° C | 67% | 1016.8 hPa | 0 mm | - | 629 W/m² | - |
| 1787584196 | 28.89° C | 68% | 1016.9 hPa | 0 mm | - | 574 W/m² | - |
| 1787583891 | 28.89° C | 67% | 1017 hPa | 0 mm | - | 239 W/m² | - |
| 1787583585 | 28.89° C | 68% | 1016.9 hPa | 0 mm | - | 577 W/m² | - |
| 1787583284 | 28.89° C | 69% | 1016.8 hPa | 0 mm | - | 235 W/m² | - |
| 1787582979 | 28.89° C | 67% | 1016.7 hPa | 0 mm | - | 451 W/m² | - |
| 1787582674 | 28.89° C | 66% | 1016.8 hPa | 0 mm | - | 199 W/m² | - |
| 1787582371 | 28.89° C | 66% | 1016.6 hPa | 0 mm | - | 361 W/m² | - |
| 1787582070 | 28.33° C | 69% | 1016.6 hPa | 0 mm | - | 603 W/m² | - |
| 1787581765 | 28.33° C | 67% | 1016.7 hPa | 0 mm | - | 204 W/m² | - |
| 1787581460 | 27.78° C | 69% | 1016.5 hPa | 0 mm | - | 177 W/m² | - |
| 1787581154 | 28.33° C | 68% | 1016.6 hPa | 0 mm | - | 146 W/m² | - |
| 1787580849 | 27.78° C | 70% | 1016.8 hPa | 0 mm | - | 553 W/m² | - |
| 1787580546 | 27.22° C | 71% | 1016.7 hPa | 0 mm | - | 424 W/m² | - |
| 1787580245 | 27.78° C | 70% | 1016.8 hPa | 0 mm | - | 200 W/m² | - |
| 1787579941 | 27.22° C | 72% | 1016.9 hPa | 0 mm | - | 194 W/m² | - |
| 1787579635 | 27.78° C | 71% | 1016.7 hPa | 0 mm | - | 150 W/m² | - |
| 1787579330 | 27.22° C | 71% | 1017 hPa | 0 mm | - | 383 W/m² | - |
| 1787579026 | 26.67° C | 74% | 1016.8 hPa | 0 mm | - | 181 W/m² | - |
| 1787578722 | 25.56° C | 76% | 1017.1 hPa | 0 mm | - | 299 W/m² | - |
* Rain latest hour (hover to see other rain measurements)
** Current wind speed in m/s (hover to see current wind gust speed)